KZ-0026 weather

CLOSED Novotroitskoye West Airfield
Novotroitskoye, Jambyl Region, Kazakhstan

Public forecast

Using degrees Celsius for public forecast. Weather courtesy of forecast.io.

METAR (pilot weather report)

Closest report is Manas International Airport, 56.9 nm (105.4 km) SE. Retrieved 2019/03/21 05:00 UTC (17 minutes ago):

UCFM 210500Z 25003MPS 200V300 CAVOK 12/01 Q1019 R26/09//95 NOSIG

TAF (pilot weather forecast)

Forecast is more than 12 hours old.

Closest forecast is Manas International Airport, 56.9 nm (105.4 km) SE. Retrieved 2019/03/20 00:00 UTC (1 day ago):

TAF UCFM 202236Z 2100/2124 12003G08MPS 6000 SCT050CB TEMPO 2100/2106 24003G08MPS 2000 BR FU FEW007 BKN030CB BECMG 2106/2108 32003G08MPS 9999